Estación de Illapel

Ultimos registro cada 15 minutos 72
Estación Fecha / Hora Temperatura Humedad Lluvia Velocidad Dirección Radiación Presion
72 Illapel 08-05-2026 17:45 18,1 33 0 0,4 310 5 1010,3
71 Illapel 08-05-2026 17:30 18,9 31 0 0,4 318 9 1010,3
70 Illapel 08-05-2026 17:15 19,6 31 0 0 316 14 1010,3
69 Illapel 08-05-2026 17:00 20,1 29 0 3,1 303 19 1010,3
68 Illapel 08-05-2026 16:45 21 28 0 0,9 327 118 1010,3
67 Illapel 08-05-2026 16:30 21,6 26 0 2,2 314 206 1010,3
66 Illapel 08-05-2026 16:15 21,8 27 0 1,8 330 248 1010,3
65 Illapel 08-05-2026 16:00 22,1 27 0 0,4 318 287 1010,3
64 Illapel 08-05-2026 15:45 22,4 28 0 2,2 322 325 1010,3
63 Illapel 08-05-2026 15:30 22,5 26 0 1,8 360 362 1010,3
62 Illapel 08-05-2026 15:15 22,4 27 0 2,7 8 396 1010,3
61 Illapel 08-05-2026 15:00 22,6 28 0 3,1 16 432 1010,3
60 Illapel 08-05-2026 14:45 22,8 29 0 1,8 325 464 1010,3
59 Illapel 08-05-2026 14:30 22,9 30 0 3,6 307 496 1010,3
58 Illapel 08-05-2026 14:15 23,2 29 0 2,2 6 520 1010,3
57 Illapel 08-05-2026 14:00 23 29 0 0,9 320 547 1010,3
56 Illapel 08-05-2026 13:45 22,9 29 0 1,8 18 571 1010,3
55 Illapel 08-05-2026 13:30 23 28 0 3,1 360 100 1010,3
54 Illapel 08-05-2026 13:15 22,8 27 0 0,4 312 32 1010,3
53 Illapel 08-05-2026 13:00 22,3 28 0 0,4 306 32 1010,3
52 Illapel 08-05-2026 12:45 21,9 25 0 1,8 302 30 1010,3
51 Illapel 08-05-2026 12:30 21,6 28 0 1,8 346 28 1010,3
50 Illapel 08-05-2026 12:15 20,9 28 0 0,4 347 28 1010,3
49 Illapel 08-05-2026 12:00 20,2 30 0 0,4 349 28 1010,3
48 Illapel 08-05-2026 11:45 19,6 34 0 0,4 347 30 1010,3
47 Illapel 08-05-2026 11:30 19,3 36 0 0,9 6 32 1010,3
46 Illapel 08-05-2026 11:15 18,7 37 0 0 17 515 1010,3
45 Illapel 08-05-2026 11:00 17,7 39 0 0 23 279 1010,3
44 Illapel 08-05-2026 10:45 16,7 41 0 0 21 494 1010,3
43 Illapel 08-05-2026 10:30 15,8 44 0 0,4 23 475 1010,3
42 Illapel 08-05-2026 10:15 14,7 48 0 0 31 452 1010,3
41 Illapel 08-05-2026 10:00 14,1 50 0 0,4 29 415 1011,3
40 Illapel 08-05-2026 09:45 13,1 51 0 0 49 353 1013,5
39 Illapel 08-05-2026 09:30 11,9 54 0 0 94 341 1013,7
38 Illapel 08-05-2026 09:15 11,5 55 0 0 104 301 1013,7
37 Illapel 08-05-2026 09:00 10,7 55 0 0,9 120 163 1013,7
36 Illapel 08-05-2026 08:45 9,6 55 0 0,4 121 229 1013,7
35 Illapel 08-05-2026 08:30 8,5 55 0 0 125 83 1013,7
34 Illapel 08-05-2026 08:15 7,7 53 0 0,4 155 104 1015,2
33 Illapel 08-05-2026 08:00 6,8 51 0 0 148 70 1003,8
32 Illapel 08-05-2026 07:45 6,3 51 0 0 152 42 1003,8
31 Illapel 08-05-2026 07:30 6,4 50 0 0 147 12 1003,8
30 Illapel 08-05-2026 07:15 5,7 50 0 0 143 0 1003,8
29 Illapel 08-05-2026 07:00 5,7 51 0 0,4 173 0 1003,8
28 Illapel 08-05-2026 06:45 5,8 52 0 0 121 0 1003,8
27 Illapel 08-05-2026 06:30 5,3 56 0 0 147 0 1003,8
26 Illapel 08-05-2026 06:15 5,1 56 0 0 140 0 1003,8
25 Illapel 08-05-2026 06:00 5,3 55 0 0 140 0 1003,8
24 Illapel 08-05-2026 05:45 5,7 55 0 0 140 0 1003,8
23 Illapel 08-05-2026 05:30 6 55 0 0 140 0 1003,8
22 Illapel 08-05-2026 05:15 5,9 55 0 0 137 0 1003,8
21 Illapel 08-05-2026 05:00 6,3 56 0 0 137 0 1003,8
20 Illapel 08-05-2026 04:45 6,1 55 0 0 136 0 1003,8
19 Illapel 08-05-2026 04:30 6,2 55 0 0 136 0 1003,8
18 Illapel 08-05-2026 04:15 6,2 55 0 0 140 0 1003,8
17 Illapel 08-05-2026 04:00 6,3 55 0 0 139 0 1003,8
16 Illapel 08-05-2026 03:45 6,4 55 0 0 180 0 1003,8
15 Illapel 08-05-2026 03:30 6,8 55 0 0 180 0 1003,8
14 Illapel 08-05-2026 03:15 6,9 55 0 0 216 0 1003,8
13 Illapel 08-05-2026 03:00 7,2 56 0 0 216 0 1003,8
12 Illapel 08-05-2026 02:45 7,1 56 0 0,4 217 0 1003,8
11 Illapel 08-05-2026 02:30 6,8 58 0 0 225 0 1003,8
10 Illapel 08-05-2026 02:15 6,9 59 0 0 225 0 1003,8
9 Illapel 08-05-2026 02:00 6,9 59 0 0 227 0 1003,8
8 Illapel 08-05-2026 01:45 7,3 59 0 0 227 0 1003,8
7 Illapel 08-05-2026 01:30 7,2 60 0 0 227 0 1003,8
6 Illapel 08-05-2026 01:15 7,3 59 0 0 233 0 1003,8
5 Illapel 08-05-2026 01:00 7,5 60 0 0 233 0 1003,8
4 Illapel 08-05-2026 00:45 7,9 60 0 0 233 0 1003,8
3 Illapel 08-05-2026 00:30 8,2 60 0 0 233 0 1003,8
2 Illapel 08-05-2026 00:15 8,2 60 0 0 233 0 1003,8
1 Illapel 08-05-2026 00:00 8,3 60 0 0 233 0 1003,8